createdAt,value
2023-10-05T00:00:07.724Z,12.68
2023-10-05T00:01:09.100Z,12.65
2023-10-05T00:02:09.393Z,12.63
2023-10-05T00:03:09.668Z,12.61
2023-10-05T00:04:11.054Z,12.61
2023-10-05T00:06:11.623Z,12.58
2023-10-05T00:07:12.469Z,12.61
2023-10-05T00:08:12.315Z,12.61
2023-10-05T00:09:13.336Z,12.54
2023-10-05T00:10:14.388Z,12.5
2023-10-05T00:11:15.402Z,12.53
2023-10-05T00:12:16.376Z,12.55
2023-10-05T00:13:17.317Z,12.5
2023-10-05T00:14:18.361Z,12.44
2023-10-05T00:15:18.509Z,12.5
2023-10-05T00:16:19.299Z,12.47
2023-10-05T00:17:19.686Z,12.5
2023-10-05T00:18:19.736Z,12.44
2023-10-05T00:19:20.699Z,12.43
2023-10-05T00:20:21.833Z,12.45
2023-10-05T00:21:21.853Z,12.4
2023-10-05T00:22:22.711Z,12.47
2023-10-05T00:23:22.742Z,12.44
2023-10-05T00:24:22.916Z,12.36
2023-10-05T00:25:23.856Z,12.33
2023-10-05T00:26:24.484Z,12.36
2023-10-05T00:27:25.426Z,12.37
2023-10-05T00:28:26.695Z,12.33
2023-10-05T00:29:27.348Z,12.43
2023-10-05T00:30:28.085Z,12.36
2023-10-05T00:31:29.368Z,12.4
2023-10-05T00:32:29.448Z,12.37
2023-10-05T00:33:30.394Z,12.37
2023-10-05T00:34:31.408Z,12.39
2023-10-05T00:35:32.340Z,12.36
2023-10-05T00:36:32.877Z,12.35
2023-10-05T00:37:33.949Z,12.39
2023-10-05T00:38:34.463Z,12.3
2023-10-05T00:39:35.269Z,12.4
2023-10-05T00:40:35.641Z,12.39
2023-10-05T00:41:36.354Z,12.32
2023-10-05T00:42:37.276Z,12.4
2023-10-05T00:43:37.801Z,12.28
2023-10-05T00:44:38.545Z,12.2
2023-10-05T00:45:38.863Z,12.33
2023-10-05T00:46:40.078Z,12.29
2023-10-05T00:47:40.467Z,12.29
2023-10-05T00:48:40.298Z,12.18
2023-10-05T00:49:41.311Z,12.33
2023-10-05T00:50:41.774Z,12.33
2023-10-05T00:51:42.526Z,12.25
2023-10-05T00:52:42.757Z,12.26
2023-10-05T00:53:42.678Z,12.18
2023-10-05T00:54:43.582Z,12.18
2023-10-05T00:55:44.361Z,12.15
2023-10-05T00:56:45.372Z,12.3
2023-10-05T00:57:45.469Z,12.17
2023-10-05T00:58:46.480Z,12.28
2023-10-05T00:59:47.276Z,12.2
2023-10-05T01:00:48.231Z,12.15
2023-10-05T01:01:49.081Z,12.21
2023-10-05T01:02:50.273Z,12.17
2023-10-05T01:03:51.062Z,12.2
2023-10-05T01:04:50.955Z,12.15
2023-10-05T01:05:51.506Z,12.17
2023-10-05T01:06:52.286Z,12.25
2023-10-05T01:07:52.610Z,12.17
2023-10-05T01:08:53.113Z,12.2
2023-10-05T01:09:53.693Z,12.2
2023-10-05T01:10:53.716Z,12.18
2023-10-05T01:11:54.207Z,12.17
2023-10-05T01:12:54.697Z,12.25
2023-10-05T01:13:55.541Z,12
2023-10-05T01:14:56.307Z,12.1
2023-10-05T01:15:57.282Z,12.1
2023-10-05T01:16:58.116Z,12.1
2023-10-05T01:17:59.167Z,12.15
2023-10-05T01:18:59.163Z,12.1
2023-10-05T01:19:59.424Z,12.18
2023-10-05T01:21:00.172Z,12.12
2023-10-05T01:22:00.838Z,12.2
2023-10-05T01:23:01.123Z,12.17
2023-10-05T01:24:01.863Z,12.11
2023-10-05T01:25:03.189Z,12.07
2023-10-05T01:26:03.462Z,12.11
2023-10-05T01:27:04.587Z,12.18
2023-10-05T01:28:05.594Z,12.12
2023-10-05T01:29:06.811Z,12.14
2023-10-05T01:30:07.474Z,12.07
2023-10-05T01:31:08.731Z,12.03
2023-10-05T01:32:08.691Z,12.08
2023-10-05T01:33:09.135Z,12.08
2023-10-05T01:34:09.194Z,12.12
2023-10-05T01:35:14.834Z,12.07
2023-10-05T01:37:11.381Z,12.02
2023-10-05T01:38:11.819Z,12.02
2023-10-05T01:39:12.537Z,12.08
2023-10-05T01:40:13.398Z,12.05
2023-10-05T01:41:14.302Z,12.03
2023-10-05T01:42:15.010Z,12.07
2023-10-05T01:43:16.104Z,11.95
2023-10-05T01:44:16.540Z,11.93
2023-10-05T01:45:17.284Z,11.96
2023-10-05T01:46:18.814Z,11.88
2023-10-05T01:47:18.350Z,11.96
2023-10-05T01:48:19.360Z,11.88
2023-10-05T01:49:20.011Z,11.86
2023-10-05T01:50:20.035Z,11.85
2023-10-05T01:51:21.158Z,11.81
2023-10-05T01:52:21.341Z,11.83
2023-10-05T01:53:22.251Z,11.71
2023-10-05T01:54:22.985Z,11.8
2023-10-05T01:55:23.977Z,11.71
2023-10-05T01:56:24.012Z,11.78
2023-10-05T01:57:25.160Z,11.7
2023-10-05T01:58:25.900Z,11.77
2023-10-05T01:59:26.903Z,11.83
2023-10-05T02:00:27.129Z,11.78
2023-10-05T02:01:27.531Z,11.85
2023-10-05T02:02:27.584Z,11.76
2023-10-05T02:03:28.367Z,11.88
2023-10-05T02:04:28.857Z,11.85
2023-10-05T02:05:28.828Z,11.86
2023-10-05T02:06:29.044Z,11.86
2023-10-05T02:07:29.901Z,11.81
2023-10-05T02:08:29.738Z,11.78
2023-10-05T02:09:30.092Z,11.81
2023-10-05T02:10:31.263Z,11.74
2023-10-05T02:11:31.388Z,11.74
2023-10-05T02:12:32.005Z,11.73
2023-10-05T02:13:32.940Z,11.68
2023-10-05T02:14:33.290Z,11.67
2023-10-05T02:15:34.044Z,11.76
2023-10-05T02:16:34.607Z,11.77
2023-10-05T02:17:34.740Z,11.76
2023-10-05T02:18:35.795Z,11.63
2023-10-05T02:19:36.668Z,11.76
2023-10-05T02:20:36.387Z,11.68
2023-10-05T02:21:37.027Z,11.76
2023-10-05T02:22:38.226Z,11.78
2023-10-05T02:23:38.746Z,11.8
2023-10-05T02:24:39.575Z,11.67
2023-10-05T02:25:40.524Z,11.73
2023-10-05T02:26:40.978Z,11.76
2023-10-05T02:27:41.777Z,11.8
2023-10-05T02:28:42.540Z,11.71
2023-10-05T02:29:43.100Z,11.7
2023-10-05T02:30:43.841Z,11.68
2023-10-05T02:31:44.788Z,11.73
2023-10-05T02:32:45.725Z,11.65
2023-10-05T02:33:46.596Z,11.67
2023-10-05T02:34:47.011Z,11.7
2023-10-05T02:35:47.337Z,11.6
2023-10-05T02:36:48.121Z,11.7
2023-10-05T02:37:49.178Z,11.68
2023-10-05T02:38:49.640Z,11.73
2023-10-05T02:39:50.955Z,11.63
2023-10-05T02:40:50.972Z,11.59
2023-10-05T02:41:50.896Z,11.56
2023-10-05T02:42:51.670Z,11.67
2023-10-05T02:43:52.252Z,11.59
2023-10-05T02:44:52.811Z,11.62
2023-10-05T02:45:53.570Z,11.59
2023-10-05T02:46:54.795Z,11.55
2023-10-05T02:47:55.554Z,11.6
2023-10-05T02:48:56.625Z,11.59
2023-10-05T02:49:56.907Z,11.56
2023-10-05T02:50:56.782Z,11.59
2023-10-05T02:51:57.407Z,11.58
2023-10-05T02:52:58.219Z,11.6
2023-10-05T02:53:59.489Z,11.59
2023-10-05T02:55:00.253Z,11.56
2023-10-05T02:56:01.323Z,11.58
2023-10-05T02:57:01.512Z,11.6
2023-10-05T02:58:02.382Z,11.59
2023-10-05T02:59:03.802Z,11.59
2023-10-05T03:00:03.765Z,11.55
2023-10-05T03:01:04.809Z,11.58
2023-10-05T03:02:05.187Z,11.51
2023-10-05T03:03:05.654Z,11.59
2023-10-05T03:04:06.825Z,11.55
2023-10-05T03:05:07.145Z,11.53
2023-10-05T03:06:06.974Z,11.52
2023-10-05T03:07:07.357Z,11.6
2023-10-05T03:08:08.298Z,11.53
2023-10-05T03:09:08.437Z,11.55
2023-10-05T03:10:09.268Z,11.49
2023-10-05T03:11:10.110Z,11.53
2023-10-05T03:12:10.898Z,11.56
2023-10-05T03:13:11.163Z,11.45
2023-10-05T03:14:12.277Z,11.56
2023-10-05T03:15:13.343Z,11.52
2023-10-05T03:16:13.834Z,11.56
2023-10-05T03:17:14.856Z,11.58
2023-10-05T03:18:15.198Z,11.52
2023-10-05T03:19:16.395Z,11.45
2023-10-05T03:20:16.575Z,11.58
2023-10-05T03:21:17.179Z,11.45
2023-10-05T03:22:18.040Z,11.49
2023-10-05T03:23:18.223Z,11.4
2023-10-05T03:24:18.166Z,11.49
2023-10-05T03:25:19.150Z,11.44
2023-10-05T03:26:19.977Z,11.4
2023-10-05T03:27:20.832Z,11.43
2023-10-05T03:28:21.332Z,11.4
2023-10-05T03:29:21.898Z,11.37
2023-10-05T03:30:22.640Z,11.4
2023-10-05T03:31:23.957Z,11.37
2023-10-05T03:32:27.771Z,11.33
2023-10-05T03:33:24.725Z,11.33
2023-10-05T03:34:25.748Z,11.4
2023-10-05T03:35:25.587Z,11.35
2023-10-05T03:36:26.137Z,11.34
2023-10-05T03:37:27.077Z,11.4
2023-10-05T03:38:27.072Z,11.25
2023-10-05T03:39:27.818Z,11.44
2023-10-05T03:40:28.866Z,11.38
2023-10-05T03:41:28.947Z,11.33
2023-10-05T03:42:29.847Z,11.38
2023-10-05T03:43:30.866Z,11.45
2023-10-05T03:44:31.435Z,11.35
2023-10-05T03:45:32.375Z,11.3
2023-10-05T03:46:33.781Z,11.33
2023-10-05T03:47:33.368Z,11.33
2023-10-05T03:48:33.982Z,11.35
2023-10-05T03:49:35.281Z,11.35
2023-10-05T03:50:35.189Z,11.38
2023-10-05T03:51:36.136Z,11.33
2023-10-05T03:52:37.282Z,11.37
2023-10-05T03:54:37.172Z,11.23
2023-10-05T03:55:37.927Z,11.26
2023-10-05T03:56:38.563Z,11.3
2023-10-05T03:57:39.177Z,11.19
2023-10-05T03:58:40.267Z,11.19
2023-10-05T03:59:40.176Z,11.25
2023-10-05T04:00:41.222Z,11.23
2023-10-05T04:01:41.583Z,11.19
2023-10-05T04:02:41.632Z,11.18
2023-10-05T04:03:42.918Z,11.23
2023-10-05T04:04:42.772Z,11.23
2023-10-05T04:05:43.459Z,11.3
2023-10-05T04:06:43.950Z,11.22
2023-10-05T04:07:45.168Z,11.34
2023-10-05T04:08:45.529Z,11.31
2023-10-05T04:09:45.872Z,11.23
2023-10-05T04:10:46.729Z,11.25
2023-10-05T04:11:46.755Z,11.23
2023-10-05T04:12:47.447Z,11.23
2023-10-05T04:13:47.592Z,11.2
2023-10-05T04:14:48.490Z,11.18
2023-10-05T04:15:48.431Z,11.19
2023-10-05T04:16:49.117Z,11.2
2023-10-05T04:18:49.732Z,11.18
2023-10-05T04:19:50.226Z,11.2
2023-10-05T04:20:54.868Z,11.23
2023-10-05T04:21:50.846Z,11.26
2023-10-05T04:22:51.429Z,11.25
2023-10-05T04:23:52.371Z,11.19
2023-10-05T04:24:52.692Z,11.19
2023-10-05T04:25:53.168Z,11.23
2023-10-05T04:26:53.782Z,11.23
2023-10-05T04:27:54.551Z,11.22
2023-10-05T04:28:54.522Z,11.27
2023-10-05T04:29:55.364Z,11.23
2023-10-05T04:30:56.229Z,11.19
2023-10-05T04:31:57.328Z,11.15
2023-10-05T04:32:57.759Z,11.18
2023-10-05T04:33:58.374Z,11.15
2023-10-05T04:34:59.216Z,11.18
2023-10-05T04:35:58.943Z,11.15
2023-10-05T04:36:59.591Z,11.1
2023-10-05T04:37:59.908Z,11.15
2023-10-05T04:39:00.897Z,11.13
2023-10-05T04:40:01.535Z,11.15
2023-10-05T04:41:02.444Z,11.13
2023-10-05T04:42:03.084Z,11.1
2023-10-05T04:43:03.680Z,11.16
2023-10-05T04:44:04.678Z,11.16
2023-10-05T04:45:04.596Z,11.1
2023-10-05T04:46:05.712Z,11.1
2023-10-05T04:47:05.752Z,11.07
2023-10-05T04:48:06.952Z,11.01
2023-10-05T04:49:07.333Z,11.05
2023-10-05T04:50:07.471Z,11.01
2023-10-05T04:51:08.362Z,11.1
2023-10-05T04:52:13.408Z,11.08
2023-10-05T04:53:09.175Z,11.08
2023-10-05T04:54:09.909Z,11.04
2023-10-05T04:55:11.057Z,11.01
2023-10-05T04:56:11.866Z,11
2023-10-05T04:57:12.783Z,11.01
2023-10-05T04:58:12.934Z,11.07
2023-10-05T04:59:14.057Z,11.05
2023-10-05T05:00:14.986Z,11.05
2023-10-05T05:01:15.923Z,11.02
2023-10-05T05:02:16.080Z,11.05
2023-10-05T05:03:17.604Z,10.98
2023-10-05T05:04:20.484Z,10.97
2023-10-05T05:06:19.755Z,11
2023-10-05T05:07:19.617Z,11.08
2023-10-05T05:08:20.266Z,11.1
2023-10-05T05:09:20.988Z,11.07
2023-10-05T05:10:21.766Z,11.02
2023-10-05T05:11:22.971Z,11
2023-10-05T05:12:23.967Z,11.13
2023-10-05T05:13:23.981Z,11
2023-10-05T05:14:24.654Z,11.04
2023-10-05T05:15:25.199Z,11.04
2023-10-05T05:16:27.066Z,11.04
2023-10-05T05:17:26.703Z,11
2023-10-05T05:18:27.978Z,11.07
2023-10-05T05:19:28.465Z,11
2023-10-05T05:20:28.475Z,11.13
2023-10-05T05:21:29.220Z,11.15
2023-10-05T05:22:29.904Z,11.1
2023-10-05T05:23:30.587Z,11.15
2023-10-05T05:24:30.934Z,11.07
2023-10-05T05:25:31.938Z,11.15
2023-10-05T05:26:32.013Z,11.05
2023-10-05T05:27:32.710Z,11.1
2023-10-05T05:28:33.790Z,11.13
2023-10-05T05:29:33.859Z,11.19
2023-10-05T05:30:34.304Z,11.15
2023-10-05T05:31:35.017Z,11.15
2023-10-05T05:32:36.039Z,11.1
2023-10-05T05:33:36.163Z,11.13
2023-10-05T05:34:36.762Z,11.15
2023-10-05T05:35:37.327Z,11.1
2023-10-05T05:36:38.012Z,11.16
2023-10-05T05:37:39.016Z,11.18
2023-10-05T05:38:39.454Z,11.22
2023-10-05T05:39:39.906Z,11.25
2023-10-05T05:40:41.112Z,11.25
2023-10-05T05:41:41.717Z,11.22
2023-10-05T05:42:42.649Z,11.33
2023-10-05T05:43:43.539Z,11.34
2023-10-05T05:44:44.175Z,11.27
2023-10-05T05:45:44.852Z,11.34
2023-10-05T05:46:45.853Z,11.33
2023-10-05T05:47:48.586Z,11.25
2023-10-05T05:49:46.584Z,11.37
2023-10-05T05:50:47.174Z,11.41
2023-10-05T05:51:48.100Z,11.35
2023-10-05T05:52:48.987Z,11.35
2023-10-05T05:53:49.733Z,11.37
2023-10-05T05:54:50.086Z,11.34
2023-10-05T05:55:51.915Z,11.37
2023-10-05T05:56:51.558Z,11.41
2023-10-05T05:57:52.304Z,11.38
2023-10-05T05:58:53.117Z,11.38
2023-10-05T05:59:54.099Z,11.37
2023-10-05T06:00:55.059Z,11.41
2023-10-05T06:01:56.027Z,11.4
2023-10-05T06:02:59.012Z,11.45
2023-10-05T06:03:57.146Z,11.48
2023-10-05T06:04:57.394Z,11.58
2023-10-05T06:05:58.284Z,11.44
2023-10-05T06:06:58.895Z,11.53
2023-10-05T06:07:59.767Z,11.62
2023-10-05T06:09:00.634Z,11.56
2023-10-05T06:10:01.424Z,11.67
2023-10-05T06:11:02.389Z,11.65
2023-10-05T06:12:02.989Z,11.71
2023-10-05T06:13:04.201Z,11.78
2023-10-05T06:14:05.142Z,11.7
2023-10-05T06:15:05.372Z,11.78
2023-10-05T06:16:06.280Z,11.77
2023-10-05T06:17:06.910Z,11.81
2023-10-05T06:18:07.564Z,11.91
2023-10-05T06:19:07.894Z,11.83
2023-10-05T06:20:07.818Z,11.88
2023-10-05T06:21:09.000Z,11.88
2023-10-05T06:22:09.739Z,12.05
2023-10-05T06:23:10.534Z,12
2023-10-05T06:24:11.047Z,12.05
2023-10-05T06:25:11.987Z,11.91
2023-10-05T06:26:12.780Z,12.03
2023-10-05T06:27:13.464Z,12
2023-10-05T06:28:14.147Z,12.07
2023-10-05T06:29:44.270Z,12.08
2023-10-05T06:30:27.128Z,12.2
2023-10-05T06:31:30.294Z,12.08
2023-10-05T06:32:30.274Z,12.12
2023-10-05T06:33:31.393Z,12.08
2023-10-05T06:34:31.712Z,12.18
2023-10-05T06:35:32.117Z,12.18
2023-10-05T06:36:33.160Z,12.14
2023-10-05T06:37:33.252Z,12.2
2023-10-05T06:38:33.660Z,12.17
2023-10-05T06:39:34.278Z,12.26
2023-10-05T06:40:35.490Z,12.29
2023-10-05T06:41:35.384Z,12.36
2023-10-05T06:42:35.914Z,12.29
2023-10-05T06:43:37.120Z,12.33
2023-10-05T06:44:40.064Z,12.44
2023-10-05T06:46:38.392Z,12.47
2023-10-05T06:47:39.017Z,12.54
2023-10-05T06:48:39.703Z,12.53
2023-10-05T06:49:40.636Z,12.51
2023-10-05T06:50:40.653Z,12.55
2023-10-05T06:51:41.250Z,12.58
2023-10-05T06:52:41.890Z,12.61
2023-10-05T06:53:42.643Z,12.65
2023-10-05T06:54:43.333Z,12.63
2023-10-05T06:55:44.068Z,12.68
2023-10-05T06:56:44.254Z,12.7
2023-10-05T06:57:45.126Z,12.65
2023-10-05T06:58:45.888Z,12.76
2023-10-05T06:59:46.766Z,12.84
2023-10-05T07:00:47.533Z,12.8
2023-10-05T07:01:48.395Z,12.8
2023-10-05T07:02:49.751Z,12.9
2023-10-05T07:03:49.981Z,12.93
2023-10-05T07:04:50.494Z,12.9
2023-10-05T07:05:51.117Z,12.9
2023-10-05T07:06:51.932Z,12.98
2023-10-05T07:07:52.219Z,13.06
2023-10-05T07:08:53.212Z,13.02
2023-10-05T07:09:54.062Z,13.03
2023-10-05T07:10:55.331Z,13.03
2023-10-05T07:11:55.071Z,13.05
2023-10-05T07:12:55.851Z,13.09
2023-10-05T07:13:56.697Z,13.05
2023-10-05T07:14:57.650Z,13.16
2023-10-05T07:15:58.564Z,13.16
2023-10-05T07:16:59.135Z,13.17
2023-10-05T07:17:59.922Z,13.11
2023-10-05T07:19:00.540Z,13.11
2023-10-05T07:20:00.711Z,13.19
2023-10-05T07:21:01.650Z,13.19
2023-10-05T07:22:02.329Z,13.16
2023-10-05T07:23:03.388Z,13.19
2023-10-05T07:24:03.307Z,13.28
2023-10-05T07:25:03.862Z,13.19
2023-10-05T07:26:04.852Z,13.28
2023-10-05T07:27:05.834Z,13.36
2023-10-05T07:28:06.109Z,13.3
2023-10-05T07:29:30.896Z,13.23
2023-10-05T07:31:19.758Z,13.42
2023-10-05T07:32:20.927Z,13.33
2023-10-05T07:33:22.519Z,13.28
2023-10-05T07:34:22.000Z,13.33
2023-10-05T07:35:22.219Z,13.36
2023-10-05T07:36:22.142Z,13.49
2023-10-05T07:37:23.413Z,13.39
2023-10-05T07:38:23.272Z,13.46
2023-10-05T07:39:23.839Z,13.45
2023-10-05T07:40:24.820Z,13.54
2023-10-05T07:41:25.777Z,13.52
2023-10-05T07:42:26.593Z,13.57
2023-10-05T07:43:27.808Z,13.61
2023-10-05T07:44:28.984Z,13.64
2023-10-05T07:46:29.754Z,13.71
2023-10-05T07:47:30.204Z,13.68
2023-10-05T07:48:31.030Z,13.79
2023-10-05T07:49:31.951Z,13.82
2023-10-05T07:50:31.991Z,13.93
2023-10-05T07:51:32.873Z,13.87
2023-10-05T07:52:33.876Z,14.03
2023-10-05T07:53:34.522Z,13.93
2023-10-05T07:54:35.227Z,14.11
2023-10-05T07:55:36.097Z,14.07
2023-10-05T07:56:36.273Z,14.08
2023-10-05T07:57:37.246Z,14.01
2023-10-05T07:58:37.453Z,14.05
2023-10-05T07:59:38.455Z,14.07
2023-10-05T08:00:39.174Z,14.12
2023-10-05T08:01:40.217Z,14.16
2023-10-05T08:02:40.918Z,14.19
2023-10-05T08:03:41.778Z,14.28
2023-10-05T08:04:42.315Z,14.31
2023-10-05T08:05:42.872Z,14.34
2023-10-05T08:06:42.495Z,14.41
2023-10-05T08:07:43.685Z,14.4
2023-10-05T08:08:43.819Z,14.55
2023-10-05T08:09:44.733Z,14.48
2023-10-05T08:10:45.536Z,14.59
2023-10-05T08:11:46.237Z,14.55
2023-10-05T08:12:46.614Z,14.63
2023-10-05T08:13:47.413Z,14.67
2023-10-05T08:14:48.576Z,14.7
2023-10-05T08:15:48.878Z,14.7
2023-10-05T08:16:50.354Z,14.71
2023-10-05T08:17:51.161Z,14.73
2023-10-05T08:18:50.571Z,14.77
2023-10-05T08:19:51.410Z,14.81
2023-10-05T08:20:52.568Z,14.77
2023-10-05T08:21:53.339Z,14.9
2023-10-05T08:22:53.768Z,14.99
2023-10-05T08:23:54.895Z,14.96
2023-10-05T08:25:54.625Z,15
2023-10-05T08:26:55.237Z,15.07
2023-10-05T08:27:55.971Z,15.1
2023-10-05T08:28:56.545Z,14.99
2023-10-05T08:29:57.675Z,15.19
2023-10-05T08:30:58.250Z,15.26
2023-10-05T08:31:59.662Z,15.17
2023-10-05T08:33:02.498Z,15.18
2023-10-05T08:34:00.495Z,15.17
2023-10-05T08:35:01.579Z,15.32
2023-10-05T08:36:01.957Z,15.32
2023-10-05T08:37:02.340Z,15.39
2023-10-05T08:38:03.523Z,15.44
2023-10-05T08:39:04.315Z,15.52
2023-10-05T08:40:05.214Z,15.55
2023-10-05T08:41:06.152Z,15.59
2023-10-05T08:42:06.658Z,15.6
2023-10-05T08:43:07.880Z,15.69
2023-10-05T08:44:08.283Z,15.78
2023-10-05T08:45:09.576Z,15.72
2023-10-05T08:46:09.831Z,15.8
2023-10-05T08:47:10.258Z,15.81
2023-10-05T08:48:10.260Z,15.9
2023-10-05T08:49:11.705Z,15.98
2023-10-05T08:50:11.552Z,15.98
2023-10-05T08:51:12.713Z,16.06
2023-10-05T08:52:13.261Z,16.13
2023-10-05T08:53:12.932Z,16.17
2023-10-05T08:54:13.788Z,16.32
2023-10-05T08:55:14.020Z,16.34
2023-10-05T08:56:13.901Z,16.47
2023-10-05T08:57:14.845Z,16.46
2023-10-05T08:58:15.896Z,16.51
2023-10-05T08:59:16.139Z,16.55
2023-10-05T09:00:16.888Z,16.58
2023-10-05T09:01:18.480Z,16.62
2023-10-05T09:02:18.912Z,16.58
2023-10-05T09:03:18.633Z,16.58
2023-10-05T09:04:19.943Z,16.73
2023-10-05T09:05:20.492Z,16.69
2023-10-05T09:06:20.823Z,16.82
2023-10-05T09:07:21.928Z,16.82
2023-10-05T09:08:21.976Z,16.8
2023-10-05T09:09:21.695Z,16.95
2023-10-05T09:10:22.813Z,17.05
2023-10-05T09:11:23.071Z,17.12
2023-10-05T09:12:23.828Z,17.16
2023-10-05T09:13:25.173Z,17.22
2023-10-05T09:14:25.710Z,17.14
2023-10-05T09:15:25.778Z,17.22
2023-10-05T09:16:26.440Z,17.24
2023-10-05T09:17:27.208Z,17.22
2023-10-05T09:18:27.999Z,17.3
2023-10-05T09:19:29.027Z,17.37
2023-10-05T09:20:29.252Z,17.34
2023-10-05T09:21:29.517Z,17.42
2023-10-05T09:22:30.677Z,17.52
2023-10-05T09:23:31.721Z,17.52
2023-10-05T09:24:31.689Z,17.56
2023-10-05T09:25:32.525Z,17.52
2023-10-05T09:26:33.129Z,17.53
2023-10-05T09:27:33.343Z,17.54
2023-10-05T09:28:33.445Z,17.66
2023-10-05T09:29:34.127Z,17.57
2023-10-05T09:30:34.688Z,17.69
2023-10-05T09:31:35.191Z,17.71
2023-10-05T09:32:35.235Z,17.66
2023-10-05T09:33:36.339Z,17.69
2023-10-05T09:34:36.565Z,17.76
2023-10-05T09:35:37.622Z,17.79
2023-10-05T09:36:37.612Z,17.78
2023-10-05T09:37:38.501Z,17.86
2023-10-05T09:38:39.927Z,17.88
2023-10-05T09:39:40.049Z,18
2023-10-05T09:40:40.413Z,17.97
2023-10-05T09:41:41.333Z,18
2023-10-05T09:42:41.578Z,18.03
2023-10-05T09:43:41.631Z,18.02
2023-10-05T09:44:42.358Z,17.95
2023-10-05T09:45:43.359Z,18.03
2023-10-05T09:46:46.732Z,18.12
2023-10-05T09:47:43.934Z,18.27
2023-10-05T09:48:44.624Z,18.52
2023-10-05T09:49:45.485Z,19.04
2023-10-05T09:50:46.353Z,19.48
2023-10-05T09:51:46.832Z,19.9
2023-10-05T09:52:47.087Z,20.34
2023-10-05T09:53:47.883Z,20.77
2023-10-05T09:54:48.372Z,21.13
2023-10-05T09:55:49.382Z,21.37
2023-10-05T09:56:51.070Z,21.59
2023-10-05T09:58:51.584Z,22.25
2023-10-05T09:59:52.137Z,22.62
2023-10-05T10:00:52.319Z,22.96
2023-10-05T10:01:53.086Z,22.99
2023-10-05T10:02:53.621Z,23.42
2023-10-05T10:03:54.485Z,23.84
2023-10-05T10:04:55.226Z,24.03
2023-10-05T10:05:56.217Z,23.89
2023-10-05T10:06:56.346Z,23.45
2023-10-05T10:07:57.314Z,23.2
2023-10-05T10:08:58.137Z,23.23
2023-10-05T10:09:58.664Z,23.37
2023-10-05T10:10:59.786Z,23.56
2023-10-05T10:12:00.095Z,23.62
2023-10-05T10:13:00.619Z,23.84
2023-10-05T10:14:01.520Z,24.18
2023-10-05T10:15:02.756Z,24.44
2023-10-05T10:16:03.381Z,24.61
2023-10-05T10:17:04.571Z,24.81
2023-10-05T10:18:06.081Z,24.86
2023-10-05T10:19:06.481Z,24.85
2023-10-05T10:20:06.890Z,24.86
2023-10-05T10:21:07.624Z,24.82
2023-10-05T10:22:08.965Z,24.75
2023-10-05T10:23:09.546Z,24.58
2023-10-05T10:24:11.580Z,24.48
2023-10-05T10:25:11.942Z,24.36
2023-10-05T10:26:12.344Z,24.06
2023-10-05T10:27:15.577Z,23.67
2023-10-05T10:28:13.276Z,23.34
2023-10-05T10:31:06.345Z,22.63
2023-10-05T10:32:23.858Z,22.4
2023-10-05T10:33:24.111Z,22.14
2023-10-05T10:34:24.737Z,21.89
2023-10-05T10:35:25.696Z,21.6
2023-10-05T10:36:26.436Z,21.41
2023-10-05T10:37:27.579Z,21.35
2023-10-05T10:38:27.965Z,21.37
2023-10-05T10:39:29.565Z,21.26
2023-10-05T10:40:29.285Z,21.17
2023-10-05T10:41:30.384Z,21.04
2023-10-05T10:42:30.496Z,20.93
2023-10-05T10:43:31.861Z,20.8
2023-10-05T10:44:31.761Z,20.66
2023-10-05T10:45:32.478Z,20.59
2023-10-05T10:46:33.362Z,20.64
2023-10-05T10:47:33.401Z,20.71
2023-10-05T10:48:33.978Z,20.63
2023-10-05T10:49:35.010Z,20.63
2023-10-05T10:50:34.808Z,20.58
2023-10-05T10:51:35.925Z,20.7
2023-10-05T10:52:39.216Z,20.75
2023-10-05T10:54:37.232Z,20.6
2023-10-05T10:55:41.465Z,20.6
2023-10-05T10:57:38.968Z,20.49
2023-10-05T10:58:39.982Z,20.5
2023-10-05T10:59:40.167Z,20.39
2023-10-05T11:00:40.969Z,20.44
2023-10-05T11:01:43.206Z,20.5
2023-10-05T11:05:01.898Z,20.24
2023-10-05T11:06:43.470Z,20.17
2023-10-05T11:07:43.844Z,20.1
2023-10-05T11:08:43.845Z,20.17
2023-10-05T11:09:43.874Z,20.04
2023-10-05T11:10:44.894Z,19.97
2023-10-05T11:11:46.101Z,19.87
2023-10-05T11:12:46.955Z,19.75
2023-10-05T11:13:48.151Z,19.9
2023-10-05T11:14:48.926Z,19.74
2023-10-05T11:15:49.249Z,19.72
2023-10-05T11:16:49.819Z,19.67
2023-10-05T11:17:50.808Z,19.67
2023-10-05T11:18:50.779Z,19.75
2023-10-05T11:19:51.835Z,19.75
2023-10-05T11:20:52.756Z,19.77
2023-10-05T11:21:53.793Z,19.75
2023-10-05T11:22:54.749Z,19.7
2023-10-05T11:23:55.562Z,19.77
2023-10-05T11:24:56.591Z,19.81
2023-10-05T11:26:11.599Z,19.79
2023-10-05T11:27:58.160Z,19.97
2023-10-05T11:29:00.672Z,20.03
2023-10-05T11:30:35.123Z,20.26
2023-10-05T11:32:28.748Z,20.27
2023-10-05T11:35:22.140Z,20.75
2023-10-05T11:37:12.828Z,20.8
2023-10-05T11:38:14.233Z,20.74
2023-10-05T11:39:14.597Z,20.74
2023-10-05T11:40:15.258Z,20.63
2023-10-05T11:41:15.854Z,20.55
2023-10-05T11:42:16.549Z,20.52
2023-10-05T11:43:17.174Z,20.37
2023-10-05T11:44:18.367Z,20.36
2023-10-05T11:45:18.411Z,20.6
2023-10-05T11:46:18.966Z,20.64
2023-10-05T11:47:19.308Z,20.74
2023-10-05T11:48:19.670Z,20.64
2023-10-05T11:49:20.941Z,20.64
2023-10-05T11:50:21.536Z,20.59
2023-10-05T11:51:21.854Z,20.68
2023-10-05T11:52:22.757Z,20.74
2023-10-05T11:53:23.567Z,20.77
2023-10-05T11:54:24.288Z,20.93
2023-10-05T11:55:25.151Z,21.01
2023-10-05T11:56:26.107Z,21.1
2023-10-05T11:57:26.610Z,21.07
2023-10-05T11:58:27.557Z,21.17
2023-10-05T11:59:27.606Z,21.32
2023-10-05T12:00:28.834Z,21.35
2023-10-05T12:01:30.090Z,21.4
2023-10-05T12:02:30.150Z,21.33
2023-10-05T12:03:31.037Z,21.4
2023-10-05T12:04:30.962Z,21.28
2023-10-05T12:05:30.776Z,21.17
2023-10-05T12:06:31.733Z,21
2023-10-05T12:07:31.595Z,20.95
2023-10-05T12:08:32.045Z,20.82
2023-10-05T12:09:32.623Z,20.68
2023-10-05T12:10:33.782Z,20.44
2023-10-05T12:11:33.874Z,20.37
2023-10-05T12:12:34.711Z,20.34
2023-10-05T12:13:34.976Z,20.37
2023-10-05T12:14:34.729Z,20.4
2023-10-05T12:15:35.723Z,20.4
2023-10-05T12:16:36.848Z,20.37
2023-10-05T12:17:37.214Z,20.39
2023-10-05T12:18:37.452Z,20.27
2023-10-05T12:19:38.549Z,20.27
2023-10-05T12:20:38.494Z,20.19
2023-10-05T12:21:38.858Z,20.12
2023-10-05T12:22:39.752Z,20.11
2023-10-05T12:23:39.658Z,20.03
2023-10-05T12:24:39.759Z,19.96
2023-10-05T12:25:40.638Z,19.94
2023-10-05T12:26:40.733Z,19.96
2023-10-05T12:27:41.395Z,19.92
2023-10-05T12:28:41.647Z,19.78
2023-10-05T12:29:42.441Z,19.74
2023-10-05T12:30:42.468Z,19.66
2023-10-05T12:31:43.624Z,19.56
2023-10-05T12:32:43.680Z,19.53
2023-10-05T12:33:44.443Z,19.44
2023-10-05T12:34:44.819Z,19.44
2023-10-05T12:35:50.823Z,19.45
2023-10-05T12:37:46.570Z,19.35
2023-10-05T12:38:47.307Z,19.3
2023-10-05T12:39:48.380Z,19.23
2023-10-05T12:40:49.799Z,19.2
2023-10-05T12:41:49.476Z,19.2
2023-10-05T12:43:15.813Z,19.17
2023-10-05T12:43:51.261Z,19.11
2023-10-05T12:44:52.192Z,19.08
2023-10-05T12:45:52.620Z,19.09
2023-10-05T12:46:53.535Z,19.08
2023-10-05T12:47:53.716Z,19.2
2023-10-05T12:48:54.124Z,19.15
2023-10-05T12:49:54.262Z,19.19
2023-10-05T12:50:54.832Z,19.19
2023-10-05T12:51:55.894Z,19.19
2023-10-05T12:52:57.022Z,19.23
2023-10-05T12:53:58.036Z,19.22
2023-10-05T12:54:58.945Z,19.16
2023-10-05T12:55:59.726Z,19.17
2023-10-05T12:57:22.402Z,19.05
2023-10-05T12:59:01.930Z,19.07
2023-10-05T13:00:02.850Z,18.96
2023-10-05T13:01:03.829Z,18.96
2023-10-05T13:02:04.258Z,19.01
2023-10-05T13:03:04.953Z,19.05
2023-10-05T13:04:06.726Z,18.92
2023-10-05T13:05:34.873Z,18.86
2023-10-05T13:07:07.844Z,19.07
2023-10-05T13:08:08.703Z,18.97
2023-10-05T13:09:09.242Z,19.07
2023-10-05T13:10:09.390Z,19.08
2023-10-05T13:11:10.184Z,18.88
2023-10-05T13:12:11.374Z,18.91
2023-10-05T13:13:12.198Z,18.88
2023-10-05T13:14:12.715Z,18.85
2023-10-05T13:15:13.419Z,18.89
2023-10-05T13:16:14.041Z,18.91
2023-10-05T13:17:14.645Z,18.88
2023-10-05T13:18:14.743Z,18.89
2023-10-05T13:19:15.633Z,19.04
2023-10-05T13:20:16.398Z,19
2023-10-05T13:21:16.517Z,19.09
2023-10-05T13:22:17.394Z,18.98
2023-10-05T13:23:17.373Z,19.05
2023-10-05T13:24:17.946Z,19.07
2023-10-05T13:25:18.868Z,19.16
2023-10-05T13:26:19.561Z,19.15
2023-10-05T13:27:20.436Z,19.11
2023-10-05T13:28:21.051Z,19.16
2023-10-05T13:29:21.145Z,19.23
2023-10-05T13:30:21.146Z,19.24
2023-10-05T13:31:27.343Z,19.23
2023-10-05T13:33:22.501Z,19.27